sensor_id;sensor_type;location;lat;lon;timestamp;pressure;altitude;pressure_sealevel;temperature;humidity
37832;BME280;23671;38.090;-122.570;2023-03-01T00:01:13;100847.03;;;11.57;70.89
37832;BME280;23671;38.090;-122.570;2023-03-01T00:03:42;100842.72;;;11.56;71.11
37832;BME280;23671;38.090;-122.570;2023-03-01T00:06:10;100839.34;;;11.54;71.02
37832;BME280;23671;38.090;-122.570;2023-03-01T00:08:37;100835.00;;;11.53;71.55
37832;BME280;23671;38.090;-122.570;2023-03-01T00:11:13;100836.00;;;11.52;71.55
37832;BME280;23671;38.090;-122.570;2023-03-01T00:13:41;100840.56;;;11.50;71.61
37832;BME280;23671;38.090;-122.570;2023-03-01T00:16:14;100833.69;;;11.48;71.25
37832;BME280;23671;38.090;-122.570;2023-03-01T00:18:41;100831.91;;;11.48;71.12
37832;BME280;23671;38.090;-122.570;2023-03-01T00:21:08;100833.69;;;11.48;71.19
37832;BME280;23671;38.090;-122.570;2023-03-01T00:23:37;100832.84;;;11.47;71.26
37832;BME280;23671;38.090;-122.570;2023-03-01T00:26:07;100836.47;;;11.46;71.18
37832;BME280;23671;38.090;-122.570;2023-03-01T00:28:36;100837.56;;;11.44;71.61
37832;BME280;23671;38.090;-122.570;2023-03-01T00:31:05;100835.03;;;11.42;71.12
37832;BME280;23671;38.090;-122.570;2023-03-01T00:33:32;100828.09;;;11.41;71.32
37832;BME280;23671;38.090;-122.570;2023-03-01T00:35:59;100839.63;;;11.40;71.51
37832;BME280;23671;38.090;-122.570;2023-03-01T00:38:27;100836.97;;;11.40;71.50
37832;BME280;23671;38.090;-122.570;2023-03-01T00:40:54;100836.13;;;11.40;71.47
37832;BME280;23671;38.090;-122.570;2023-03-01T00:43:21;100827.47;;;11.38;71.43
37832;BME280;23671;38.090;-122.570;2023-03-01T00:45:48;100830.25;;;11.36;71.33
37832;BME280;23671;38.090;-122.570;2023-03-01T00:48:15;100810.06;;;11.35;71.08
37832;BME280;23671;38.090;-122.570;2023-03-01T00:50:42;100810.31;;;11.32;71.31
37832;BME280;23671;38.090;-122.570;2023-03-01T00:53:10;100826.16;;;11.32;71.36
37832;BME280;23671;38.090;-122.570;2023-03-01T00:55:37;100818.50;;;11.29;71.42
37832;BME280;23671;38.090;-122.570;2023-03-01T00:58:04;100820.41;;;11.27;71.78
37832;BME280;23671;38.090;-122.570;2023-03-01T01:00:31;100820.41;;;11.27;71.10
37832;BME280;23671;38.090;-122.570;2023-03-01T01:02:58;100825.94;;;11.24;71.27
37832;BME280;23671;38.090;-122.570;2023-03-01T01:05:25;100817.31;;;11.22;71.58
37832;BME280;23671;38.090;-122.570;2023-03-01T01:07:52;100808.69;;;11.20;71.27
37832;BME280;23671;38.090;-122.570;2023-03-01T01:10:19;100814.19;;;11.17;71.25
37832;BME280;23671;38.090;-122.570;2023-03-01T01:12:47;100811.69;;;11.16;71.33
37832;BME280;23671;38.090;-122.570;2023-03-01T01:15:14;100812.53;;;11.16;71.27
37832;BME280;23671;38.090;-122.570;2023-03-01T01:17:43;100801.34;;;11.13;71.06
37832;BME280;23671;38.090;-122.570;2023-03-01T01:20:10;100804.94;;;11.12;71.04
37832;BME280;23671;38.090;-122.570;2023-03-01T01:22:37;100803.28;;;11.11;70.90
37832;BME280;23671;38.090;-122.570;2023-03-01T01:25:05;100806.03;;;11.09;70.70
37832;BME280;23671;38.090;-122.570;2023-03-01T01:27:32;100801.00;;;11.06;70.69
37832;BME280;23671;38.090;-122.570;2023-03-01T01:29:59;100798.50;;;11.05;70.59
37832;BME280;23671;38.090;-122.570;2023-03-01T01:32:26;100799.56;;;11.02;70.53
37832;BME280;23671;38.090;-122.570;2023-03-01T01:34:53;100811.94;;;11.02;70.43
37832;BME280;23671;38.090;-122.570;2023-03-01T01:37:21;100812.91;;;11.01;70.65
37832;BME280;23671;38.090;-122.570;2023-03-01T01:39:48;100810.38;;;10.99;70.25
37832;BME280;23671;38.090;-122.570;2023-03-01T01:42:19;100813.13;;;10.97;70.06
37832;BME280;23671;38.090;-122.570;2023-03-01T01:45:18;100814.94;;;10.97;70.27
37832;BME280;23671;38.090;-122.570;2023-03-01T01:47:36;100815.91;;;10.96;69.95
37832;BME280;23671;38.090;-122.570;2023-03-01T01:50:03;100818.88;;;10.91;69.94
37832;BME280;23671;38.090;-122.570;2023-03-01T01:52:34;100816.38;;;10.90;69.39
37832;BME280;23671;38.090;-122.570;2023-03-01T01:55:14;100812.19;;;10.87;69.43
37832;BME280;23671;38.090;-122.570;2023-03-01T01:57:56;100807.72;;;10.88;68.50
37832;BME280;23671;38.090;-122.570;2023-03-01T02:00:27;100814.13;;;10.85;68.62
37832;BME280;23671;38.090;-122.570;2023-03-01T02:03:08;100811.81;;;10.81;68.66
37832;BME280;23671;38.090;-122.570;2023-03-01T02:05:53;100816.25;;;10.80;68.40
37832;BME280;23671;38.090;-122.570;2023-03-01T02:08:25;100811.34;;;10.76;68.49
37832;BME280;23671;38.090;-122.570;2023-03-01T02:10:54;100822.63;;;10.78;67.82
37832;BME280;23671;38.090;-122.570;2023-03-01T02:13:22;100811.34;;;10.76;68.14
37832;BME280;23671;38.090;-122.570;2023-03-01T02:15:49;100799.34;;;10.72;67.25
37832;BME280;23671;38.090;-122.570;2023-03-01T02:18:20;100796.00;;;10.70;67.07
37832;BME280;23671;38.090;-122.570;2023-03-01T02:21:04;100800.03;;;10.63;67.07
37832;BME280;23671;38.090;-122.570;2023-03-01T02:23:34;100794.91;;;10.61;66.92
37832;BME280;23671;38.090;-122.570;2023-03-01T02:28:53;100795.03;;;10.49;66.92
37832;BME280;23671;38.090;-122.570;2023-03-01T02:31:21;100781.44;;;10.42;67.02
37832;BME280;23671;38.090;-122.570;2023-03-01T02:34:09;100795.72;;;10.40;66.98
37832;BME280;23671;38.090;-122.570;2023-03-01T02:36:56;100806.53;;;10.37;67.09
37832;BME280;23671;38.090;-122.570;2023-03-01T02:42:12;100815.50;;;10.23;67.40
37832;BME280;23671;38.090;-122.570;2023-03-01T02:44:40;100812.34;;;10.18;66.99
37832;BME280;23671;38.090;-122.570;2023-03-01T02:47:07;100805.41;;;10.17;67.28
37832;BME280;23671;38.090;-122.570;2023-03-01T02:49:36;100813.66;;;10.13;67.39
37832;BME280;23671;38.090;-122.570;2023-03-01T02:54:44;100814.81;;;10.08;67.43
37832;BME280;23671;38.090;-122.570;2023-03-01T02:57:13;100817.69;;;10.05;67.56
37832;BME280;23671;38.090;-122.570;2023-03-01T02:59:42;100823.09;;;10.04;67.37
37832;BME280;23671;38.090;-122.570;2023-03-01T03:02:27;100824.16;;;10.01;67.43
37832;BME280;23671;38.090;-122.570;2023-03-01T03:05:16;100827.84;;;9.99;67.10
37832;BME280;23671;38.090;-122.570;2023-03-01T03:07:46;100825.31;;;9.97;67.43
37832;BME280;23671;38.090;-122.570;2023-03-01T03:10:19;100836.13;;;9.94;67.43
37832;BME280;23671;38.090;-122.570;2023-03-01T03:12:53;100827.47;;;9.92;67.46
37832;BME280;23671;38.090;-122.570;2023-03-01T03:15:21;100823.50;;;9.87;67.32
37832;BME280;23671;38.090;-122.570;2023-03-01T03:17:49;100813.91;;;9.86;67.20
37832;BME280;23671;38.090;-122.570;2023-03-01T03:20:18;100796.63;;;9.82;67.85
37832;BME280;23671;38.090;-122.570;2023-03-01T03:22:48;100801.16;;;9.80;67.46
37832;BME280;23671;38.090;-122.570;2023-03-01T03:25:16;100797.81;;;9.78;67.32
37832;BME280;23671;38.090;-122.570;2023-03-01T03:27:46;100808.47;;;9.76;67.63
37832;BME280;23671;38.090;-122.570;2023-03-01T03:30:16;100806.88;;;9.74;67.52
37832;BME280;23671;38.090;-122.570;2023-03-01T03:32:45;100801.00;;;9.70;67.83
37832;BME280;23671;38.090;-122.570;2023-03-01T03:35:30;100797.66;;;9.68;67.37
37832;BME280;23671;38.090;-122.570;2023-03-01T03:37:59;100794.28;;;9.66;67.44
37832;BME280;23671;38.090;-122.570;2023-03-01T03:40:50;100797.28;;;9.62;67.45
37832;BME280;23671;38.090;-122.570;2023-03-01T03:43:25;100810.53;;;9.60;67.97
37832;BME280;23671;38.090;-122.570;2023-03-01T03:45:52;100805.50;;;9.57;67.94
37832;BME280;23671;38.090;-122.570;2023-03-01T03:48:20;100799.63;;;9.54;68.01
37832;BME280;23671;38.090;-122.570;2023-03-01T03:50:52;100793.50;;;9.53;68.12
37832;BME280;23671;38.090;-122.570;2023-03-01T03:53:20;100795.41;;;9.51;68.09
37832;BME280;23671;38.090;-122.570;2023-03-01T03:55:48;100796.38;;;9.50;68.20
37832;BME280;23671;38.090;-122.570;2023-03-01T03:58:16;100791.19;;;9.49;68.12
37832;BME280;23671;38.090;-122.570;2023-03-01T04:00:47;100795.84;;;9.45;67.62
37832;BME280;23671;38.090;-122.570;2023-03-01T04:03:15;100795.84;;;9.45;68.29
37832;BME280;23671;38.090;-122.570;2023-03-01T04:05:43;100786.41;;;9.43;68.14
37832;BME280;23671;38.090;-122.570;2023-03-01T04:08:11;100787.47;;;9.40;68.26
37832;BME280;23671;38.090;-122.570;2023-03-01T04:10:41;100789.47;;;9.37;68.08
37832;BME280;23671;38.090;-122.570;2023-03-01T04:13:12;100784.34;;;9.35;67.79
37832;BME280;23671;38.090;-122.570;2023-03-01T04:15:40;100787.19;;;9.32;68.26
37832;BME280;23671;38.090;-122.570;2023-03-01T04:18:08;100775.19;;;9.28;67.75
37832;BME280;23671;38.090;-122.570;2023-03-01T04:20:36;100773.59;;;9.26;68.31
37832;BME280;23671;38.090;-122.570;2023-03-01T04:23:04;100772.97;;;9.22;68.43
37832;BME280;23671;38.090;-122.570;2023-03-01T04:25:56;100782.91;;;9.18;68.35
37832;BME280;23671;38.090;-122.570;2023-03-01T04:30:56;100774.63;;;9.12;67.95
37832;BME280;23671;38.090;-122.570;2023-03-01T04:33:24;100768.72;;;9.08;67.96
37832;BME280;23671;38.090;-122.570;2023-03-01T04:35:52;100754.00;;;9.06;67.88
37832;BME280;23671;38.090;-122.570;2023-03-01T04:38:20;100747.25;;;9.02;67.95
37832;BME280;23671;38.090;-122.570;2023-03-01T04:40:47;100753.59;;;8.99;68.36
37832;BME280;23671;38.090;-122.570;2023-03-01T04:43:14;100762.53;;;8.97;68.57
37832;BME280;23671;38.090;-122.570;2023-03-01T04:45:41;100772.56;;;8.92;67.89
37832;BME280;23671;38.090;-122.570;2023-03-01T04:48:09;100778.16;;;8.87;68.12
37832;BME280;23671;38.090;-122.570;2023-03-01T04:50:36;100777.53;;;8.84;68.15
37832;BME280;23671;38.090;-122.570;2023-03-01T04:53:03;100783.03;;;8.81;68.04
37832;BME280;23671;38.090;-122.570;2023-03-01T04:55:30;100785.75;;;8.79;68.03
37832;BME280;23671;38.090;-122.570;2023-03-01T04:57:58;100783.22;;;8.78;68.08
37832;BME280;23671;38.090;-122.570;2023-03-01T05:00:25;100791.22;;;8.76;68.36
37832;BME280;23671;38.090;-122.570;2023-03-01T05:03:00;100797.56;;;8.74;67.83
37832;BME280;23671;38.090;-122.570;2023-03-01T05:05:33;100780.19;;;8.71;67.81
37832;BME280;23671;38.090;-122.570;2023-03-01T05:08:04;100775.03;;;8.70;68.48
37832;BME280;23671;38.090;-122.570;2023-03-01T05:10:33;100776.91;;;8.68;68.08
37832;BME280;23671;38.090;-122.570;2023-03-01T05:13:02;100783.88;;;8.69;68.08
37832;BME280;23671;38.090;-122.570;2023-03-01T05:15:31;100778.84;;;8.66;68.69
37832;BME280;23671;38.090;-122.570;2023-03-01T05:18:00;100775.38;;;8.65;68.12
37832;BME280;23671;38.090;-122.570;2023-03-01T05:20:29;100766.38;;;8.68;67.89
37832;BME280;23671;38.090;-122.570;2023-03-01T05:22:58;100760.31;;;8.67;68.25
37832;BME280;23671;38.090;-122.570;2023-03-01T05:25:27;100773.78;;;8.63;68.42
37832;BME280;23671;38.090;-122.570;2023-03-01T05:28:02;100771.25;;;8.61;68.28
37832;BME280;23671;38.090;-122.570;2023-03-01T05:30:34;100783.56;;;8.61;67.78
37832;BME280;23671;38.090;-122.570;2023-03-01T05:33:01;100786.00;;;8.64;67.93
37832;BME280;23671;38.090;-122.570;2023-03-01T05:35:28;100789.69;;;8.61;68.14
37832;BME280;23671;38.090;-122.570;2023-03-01T05:37:55;100780.00;;;8.62;67.69
37832;BME280;23671;38.090;-122.570;2023-03-01T05:40:24;100775.91;;;8.58;68.23
37832;BME280;23671;38.090;-122.570;2023-03-01T05:42:54;100766.53;;;8.54;68.03
37832;BME280;23671;38.090;-122.570;2023-03-01T05:45:24;100768.44;;;8.52;68.07
37832;BME280;23671;38.090;-122.570;2023-03-01T05:47:52;100765.06;;;8.50;67.78
37832;BME280;23671;38.090;-122.570;2023-03-01T05:50:31;100764.34;;;8.48;68.50
37832;BME280;23671;38.090;-122.570;2023-03-01T05:55:26;100765.25;;;8.47;68.31
37832;BME280;23671;38.090;-122.570;2023-03-01T05:57:54;100764.53;;;8.45;67.82
37832;BME280;23671;38.090;-122.570;2023-03-01T06:00:21;100770.00;;;8.42;67.50
37832;BME280;23671;38.090;-122.570;2023-03-01T06:02:49;100754.00;;;8.45;67.29
37832;BME280;23671;38.090;-122.570;2023-03-01T06:05:16;100755.91;;;8.43;67.93
37832;BME280;23671;38.090;-122.570;2023-03-01T06:07:44;100759.72;;;8.39;67.97
37832;BME280;23671;38.090;-122.570;2023-03-01T06:10:13;100751.47;;;8.43;67.61
37832;BME280;23671;38.090;-122.570;2023-03-01T06:12:41;100753.81;;;8.48;66.83
37832;BME280;23671;38.090;-122.570;2023-03-01T06:15:09;100761.69;;;8.48;66.62
37832;BME280;23671;38.090;-122.570;2023-03-01T06:17:38;100766.00;;;8.49;66.29
37832;BME280;23671;38.090;-122.570;2023-03-01T06:20:13;100772.22;;;8.48;66.16
37832;BME280;23671;38.090;-122.570;2023-03-01T06:22:41;100758.34;;;8.46;66.08
37832;BME280;23671;38.090;-122.570;2023-03-01T06:25:09;100760.88;;;8.35;66.73
37832;BME280;23671;38.090;-122.570;2023-03-01T06:27:36;100762.97;;;8.30;66.66
37832;BME280;23671;38.090;-122.570;2023-03-01T06:30:04;100751.81;;;8.26;67.07
37832;BME280;23671;38.090;-122.570;2023-03-01T06:32:32;100755.47;;;8.23;67.21
37832;BME280;23671;38.090;-122.570;2023-03-01T06:34:59;100752.44;;;8.17;66.85
37832;BME280;23671;38.090;-122.570;2023-03-01T06:37:26;100761.34;;;8.14;66.66
37832;BME280;23671;38.090;-122.570;2023-03-01T06:39:53;100760.84;;;8.09;67.39
37832;BME280;23671;38.090;-122.570;2023-03-01T06:42:20;100767.44;;;8.02;67.22
37832;BME280;23671;38.090;-122.570;2023-03-01T06:44:47;100767.25;;;8.05;67.35
37832;BME280;23671;38.090;-122.570;2023-03-01T06:47:14;100780.81;;;7.99;66.74
37832;BME280;23671;38.090;-122.570;2023-03-01T06:49:42;100778.19;;;7.99;67.13
37832;BME280;23671;38.090;-122.570;2023-03-01T06:52:09;100779.03;;;8.00;67.30
37832;BME280;23671;38.090;-122.570;2023-03-01T06:54:36;100782.25;;;7.91;67.31
37832;BME280;23671;38.090;-122.570;2023-03-01T06:57:03;100777.09;;;7.89;67.47
37832;BME280;23671;38.090;-122.570;2023-03-01T06:59:30;100772.06;;;7.86;66.71
37832;BME280;23671;38.090;-122.570;2023-03-01T07:01:57;100767.44;;;7.90;67.42
37832;BME280;23671;38.090;-122.570;2023-03-01T07:04:24;100767.56;;;7.88;67.26
37832;BME280;23671;38.090;-122.570;2023-03-01T07:06:55;100766.88;;;7.85;66.76
37832;BME280;23671;38.090;-122.570;2023-03-01T07:09:25;100768.59;;;7.86;66.97
37832;BME280;23671;38.090;-122.570;2023-03-01T07:11:52;100761.56;;;7.86;66.71
37832;BME280;23671;38.090;-122.570;2023-03-01T07:14:19;100761.84;;;7.82;66.91
37832;BME280;23671;38.090;-122.570;2023-03-01T07:16:46;100754.19;;;7.79;66.81
37832;BME280;23671;38.090;-122.570;2023-03-01T07:19:14;100744.31;;;7.82;66.99
37832;BME280;23671;38.090;-122.570;2023-03-01T07:21:42;100745.63;;;7.75;67.13
37832;BME280;23671;38.090;-122.570;2023-03-01T07:24:10;100751.56;;;7.79;67.17
37832;BME280;23671;38.090;-122.570;2023-03-01T07:26:37;100745.44;;;7.78;66.68
37832;BME280;23671;38.090;-122.570;2023-03-01T07:29:06;100759.53;;;7.77;66.65
37832;BME280;23671;38.090;-122.570;2023-03-01T07:31:34;100751.84;;;7.74;66.73
37832;BME280;23671;38.090;-122.570;2023-03-01T07:34:01;100751.53;;;7.66;66.74
37832;BME280;23671;38.090;-122.570;2023-03-01T07:36:28;100760.44;;;7.64;67.27
37832;BME280;23671;38.090;-122.570;2023-03-01T07:38:55;100766.53;;;7.64;66.95
37832;BME280;23671;38.090;-122.570;2023-03-01T07:41:22;100766.53;;;7.64;66.73
37832;BME280;23671;38.090;-122.570;2023-03-01T07:43:49;100770.66;;;7.68;66.69
37832;BME280;23671;38.090;-122.570;2023-03-01T07:46:16;100774.63;;;7.61;66.40
37832;BME280;23671;38.090;-122.570;2023-03-01T07:48:45;100766.66;;;7.63;66.36
37832;BME280;23671;38.090;-122.570;2023-03-01T07:51:13;100765.38;;;7.56;66.73
37832;BME280;23671;38.090;-122.570;2023-03-01T07:53:40;100763.78;;;7.53;66.78
37832;BME280;23671;38.090;-122.570;2023-03-01T07:56:10;100777.44;;;7.58;66.27
37832;BME280;23671;38.090;-122.570;2023-03-01T07:58:39;100765.47;;;7.54;66.68
37832;BME280;23671;38.090;-122.570;2023-03-01T08:01:10;100772.59;;;7.52;66.36
37832;BME280;23671;38.090;-122.570;2023-03-01T08:03:38;100762.53;;;7.46;66.89
37832;BME280;23671;38.090;-122.570;2023-03-01T08:06:08;100761.78;;;7.44;66.67
37832;BME280;23671;38.090;-122.570;2023-03-01T08:08:35;100759.72;;;7.35;66.66
37832;BME280;23671;38.090;-122.570;2023-03-01T08:11:04;100754.47;;;7.35;67.12
37832;BME280;23671;38.090;-122.570;2023-03-01T08:13:32;100747.75;;;7.31;66.96
37832;BME280;23671;38.090;-122.570;2023-03-01T08:16:08;100746.25;;;7.27;67.01
37832;BME280;23671;38.090;-122.570;2023-03-01T08:18:35;100746.06;;;7.30;66.97
37832;BME280;23671;38.090;-122.570;2023-03-01T08:21:11;100756.75;;;7.27;67.00
37832;BME280;23671;38.090;-122.570;2023-03-01T08:23:39;100756.75;;;7.27;66.83
37832;BME280;23671;38.090;-122.570;2023-03-01T08:28:33;100756.69;;;7.28;66.62
37832;BME280;23671;38.090;-122.570;2023-03-01T08:31:00;100746.25;;;7.27;66.64
37832;BME280;23671;38.090;-122.570;2023-03-01T08:33:28;100736.69;;;7.26;66.72
37832;BME280;23671;38.090;-122.570;2023-03-01T08:36:04;100747.94;;;7.28;66.07
37832;BME280;23671;38.090;-122.570;2023-03-01T08:38:34;100747.19;;;7.26;66.45
37832;BME280;23671;38.090;-122.570;2023-03-01T08:41:02;100744.97;;;7.20;66.64
37832;BME280;23671;38.090;-122.570;2023-03-01T08:43:29;100749.31;;;7.21;66.30
37832;BME280;23671;38.090;-122.570;2023-03-01T08:45:56;100751.06;;;7.20;66.34
37832;BME280;23671;38.090;-122.570;2023-03-01T08:48:23;100753.59;;;7.22;66.53
37832;BME280;23671;38.090;-122.570;2023-03-01T08:50:51;100749.38;;;7.19;66.38
37832;BME280;23671;38.090;-122.570;2023-03-01T08:53:18;100746.97;;;7.16;66.49
37832;BME280;23671;38.090;-122.570;2023-03-01T08:55:45;100739.19;;;7.15;66.25
37832;BME280;23671;38.090;-122.570;2023-03-01T08:58:12;100737.81;;;7.09;66.26
37832;BME280;23671;38.090;-122.570;2023-03-01T09:00:40;100735.34;;;7.06;66.42
37832;BME280;23671;38.090;-122.570;2023-03-01T09:03:07;100729.38;;;7.04;66.58
37832;BME280;23671;38.090;-122.570;2023-03-01T09:05:35;100732.84;;;7.05;66.60
37832;BME280;23671;38.090;-122.570;2023-03-01T09:08:03;100733.13;;;7.00;66.58
37832;BME280;23671;38.090;-122.570;2023-03-01T09:10:30;100744.47;;;7.01;66.48
37832;BME280;23671;38.090;-122.570;2023-03-01T09:12:57;100733.97;;;7.01;66.45
37832;BME280;23671;38.090;-122.570;2023-03-01T09:15:24;100726.19;;;6.99;66.43
37832;BME280;23671;38.090;-122.570;2023-03-01T09:17:51;100737.56;;;7.00;66.24
37832;BME280;23671;38.090;-122.570;2023-03-01T09:20:18;100728.72;;;7.01;66.00
37832;BME280;23671;38.090;-122.570;2023-03-01T09:22:45;100733.44;;;6.96;66.18
37832;BME280;23671;38.090;-122.570;2023-03-01T09:25:13;100724.81;;;6.94;66.20
37832;BME280;23671;38.090;-122.570;2023-03-01T09:27:40;100738.97;;;6.91;66.15
37832;BME280;23671;38.090;-122.570;2023-03-01T09:30:07;100730.56;;;6.86;66.60
37832;BME280;23671;38.090;-122.570;2023-03-01T09:32:35;100726.25;;;6.85;66.64
37832;BME280;23671;38.090;-122.570;2023-03-01T09:35:02;100736.56;;;6.88;66.48
37832;BME280;23671;38.090;-122.570;2023-03-01T09:37:33;100728.84;;;6.85;66.32
37832;BME280;23671;38.090;-122.570;2023-03-01T09:40:02;100741.22;;;6.83;66.43
37832;BME280;23671;38.090;-122.570;2023-03-01T09:42:32;100728.97;;;6.84;66.43
37832;BME280;23671;38.090;-122.570;2023-03-01T09:45:11;100727.47;;;6.80;66.39
37832;BME280;23671;38.090;-122.570;2023-03-01T09:47:42;100738.72;;;6.82;66.29
37832;BME280;23671;38.090;-122.570;2023-03-01T09:50:17;100733.00;;;6.75;66.34
37832;BME280;23671;38.090;-122.570;2023-03-01T09:55:31;100745.38;;;6.73;66.31
37832;BME280;23671;38.090;-122.570;2023-03-01T09:58:49;100742.84;;;6.72;66.43
37832;BME280;23671;38.090;-122.570;2023-03-01T10:00:59;100754.19;;;6.72;66.31
37832;BME280;23671;38.090;-122.570;2023-03-01T10:11:21;100754.78;;;6.63;66.23
37832;BME280;23671;38.090;-122.570;2023-03-01T10:14:33;100760.84;;;6.64;66.32
37832;BME280;23671;38.090;-122.570;2023-03-01T10:17:30;100748.78;;;6.61;66.22
37832;BME280;23671;38.090;-122.570;2023-03-01T10:20:30;100752.22;;;6.62;66.11
37832;BME280;23671;38.090;-122.570;2023-03-01T10:23:01;100747.94;;;6.61;66.35
37832;BME280;23671;38.090;-122.570;2023-03-01T10:30:48;100736.22;;;6.52;66.46
37832;BME280;23671;38.090;-122.570;2023-03-01T10:33:32;100744.19;;;6.51;66.26
37832;BME280;23671;38.090;-122.570;2023-03-01T10:36:02;100738.09;;;6.50;66.33
37832;BME280;23671;38.090;-122.570;2023-03-01T10:38:31;100740.66;;;6.52;66.25
37832;BME280;23671;38.090;-122.570;2023-03-01T10:41:13;100736.41;;;6.49;66.10
37832;BME280;23671;38.090;-122.570;2023-03-01T10:43:48;100739.41;;;6.43;66.39
37832;BME280;23671;38.090;-122.570;2023-03-01T10:46:36;100733.31;;;6.42;66.45
37832;BME280;23671;38.090;-122.570;2023-03-01T10:49:19;100731.66;;;6.41;66.31
37832;BME280;23671;38.090;-122.570;2023-03-01T10:51:49;100740.38;;;6.42;66.27
37832;BME280;23671;38.090;-122.570;2023-03-01T10:54:18;100743.81;;;6.42;66.14
37832;BME280;23671;38.090;-122.570;2023-03-01T10:56:57;100738.88;;;6.38;66.32
37832;BME280;23671;38.090;-122.570;2023-03-01T10:59:38;100751.13;;;6.37;66.53
37832;BME280;23671;38.090;-122.570;2023-03-01T11:02:28;100741.38;;;6.39;66.34
37832;BME280;23671;38.090;-122.570;2023-03-01T11:07:58;100735.56;;;6.34;66.24
37832;BME280;23671;38.090;-122.570;2023-03-01T11:10:28;100732.94;;;6.34;66.17
37832;BME280;23671;38.090;-122.570;2023-03-01T11:13:16;100728.09;;;6.28;66.16
37832;BME280;23671;38.090;-122.570;2023-03-01T11:16:03;100725.28;;;6.31;65.92
37832;BME280;23671;38.090;-122.570;2023-03-01T11:18:33;100730.53;;;6.31;66.07
37832;BME280;23671;38.090;-122.570;2023-03-01T11:21:01;100721.16;;;6.27;66.06
37832;BME280;23671;38.090;-122.570;2023-03-01T11:23:30;100722.00;;;6.28;65.92
37832;BME280;23671;38.090;-122.570;2023-03-01T11:26:03;100729.78;;;6.29;66.04
37832;BME280;23671;38.090;-122.570;2023-03-01T11:28:33;100720.63;;;6.22;66.25
37832;BME280;23671;38.090;-122.570;2023-03-01T11:31:12;100718.16;;;6.19;65.93
37832;BME280;23671;38.090;-122.570;2023-03-01T11:33:57;100727.16;;;6.15;66.42
37832;BME280;23671;38.090;-122.570;2023-03-01T11:42:11;100724.81;;;6.11;66.22
37832;BME280;23671;38.090;-122.570;2023-03-01T11:44:41;100725.63;;;6.11;66.07
37832;BME280;23671;38.090;-122.570;2023-03-01T11:47:30;100726.50;;;6.12;66.00
37832;BME280;23671;38.090;-122.570;2023-03-01T11:52:56;100717.88;;;6.10;66.15
37832;BME280;23671;38.090;-122.570;2023-03-01T11:55:43;100714.72;;;6.05;66.20
37832;BME280;23671;38.090;-122.570;2023-03-01T12:09:27;100761.38;;;5.98;66.43
37832;BME280;23671;38.090;-122.570;2023-03-01T12:22:30;100795.91;;;5.91;66.18
37832;BME280;23671;38.090;-122.570;2023-03-01T12:33:11;100815.19;;;5.90;66.01
37832;BME280;23671;38.090;-122.570;2023-03-01T12:36:29;100815.56;;;5.84;66.19
37832;BME280;23671;38.090;-122.570;2023-03-01T12:38:41;100824.28;;;5.83;65.89
37832;BME280;23671;38.090;-122.570;2023-03-01T12:43:58;100830.56;;;5.80;66.11
37832;BME280;23671;38.090;-122.570;2023-03-01T12:46:38;100825.84;;;5.71;66.27
37832;BME280;23671;38.090;-122.570;2023-03-01T12:51:38;100835.41;;;5.72;66.16
37832;BME280;23671;38.090;-122.570;2023-03-01T12:54:16;100843.41;;;5.69;66.04
37832;BME280;23671;38.090;-122.570;2023-03-01T12:56:47;100846.38;;;5.63;66.36
37832;BME280;23671;38.090;-122.570;2023-03-01T13:07:21;100857.63;;;5.65;65.83
37832;BME280;23671;38.090;-122.570;2023-03-01T13:12:46;100877.09;;;5.61;65.66
37832;BME280;23671;38.090;-122.570;2023-03-01T13:17:55;100880.97;;;5.54;66.13
37832;BME280;23671;38.090;-122.570;2023-03-01T13:31:04;100916.09;;;5.50;65.69
37832;BME280;23671;38.090;-122.570;2023-03-01T13:36:01;100916.28;;;5.47;66.17
37832;BME280;23671;38.090;-122.570;2023-03-01T13:38:44;100918.63;;;5.51;65.79
37832;BME280;23671;38.090;-122.570;2023-03-01T13:41:55;100931.13;;;5.46;66.03
37832;BME280;23671;38.090;-122.570;2023-03-01T13:46:46;100947.84;;;5.44;65.77
37832;BME280;23671;38.090;-122.570;2023-03-01T13:49:20;100946.94;;;5.45;65.67
37832;BME280;23671;38.090;-122.570;2023-03-01T13:51:49;100963.81;;;5.39;65.68
37832;BME280;23671;38.090;-122.570;2023-03-01T13:54:39;100964.72;;;5.38;65.72
37832;BME280;23671;38.090;-122.570;2023-03-01T13:57:07;100977.25;;;5.33;66.00
37832;BME280;23671;38.090;-122.570;2023-03-01T13:59:48;100974.72;;;5.32;65.86
37832;BME280;23671;38.090;-122.570;2023-03-01T14:02:15;100973.63;;;5.36;65.96
37832;BME280;23671;38.090;-122.570;2023-03-01T14:04:43;100984.31;;;5.31;65.82
37832;BME280;23671;38.090;-122.570;2023-03-01T14:07:21;100993.94;;;5.31;65.79
37832;BME280;23671;38.090;-122.570;2023-03-01T14:09:58;100992.41;;;5.27;66.20
37832;BME280;23671;38.090;-122.570;2023-03-01T14:15:32;100997.66;;;5.27;66.40
37832;BME280;23671;38.090;-122.570;2023-03-01T14:18:26;101002.88;;;5.27;65.75
37832;BME280;23671;38.090;-122.570;2023-03-01T14:20:58;101000.53;;;5.22;66.32
37832;BME280;23671;38.090;-122.570;2023-03-01T14:23:25;101008.78;;;5.15;66.16
37832;BME280;23671;38.090;-122.570;2023-03-01T14:25:57;101002.44;;;5.19;66.26
37832;BME280;23671;38.090;-122.570;2023-03-01T14:28:34;101016.47;;;5.18;66.23
37832;BME280;23671;38.090;-122.570;2023-03-01T14:31:39;101011.00;;;5.22;65.77
37832;BME280;23671;38.090;-122.570;2023-03-01T14:34:23;101008.28;;;5.24;65.60
37832;BME280;23671;38.090;-122.570;2023-03-01T14:36:51;101018.22;;;5.17;66.51
37832;BME280;23671;38.090;-122.570;2023-03-01T14:39:20;101024.03;;;5.07;66.58